Currently 42°F in San Jacinto, California, USA
42°F
43°F / 42°F
7 mph SW
0.21"
Thursday, February 21, 2019 3:58 AM PST

San Jacinto, California Weather Summary
Last 36 Hours

Temperature Winds Hourly Humidity Dewpoint
Time Report Norm Report Norm Max Gusts Precip. Rpt. Norm Rpt. Norm Pressure
1Thu 03:58 AM  41.5°F  43°F  7 mph SW  1 mph  17 mph  0.10"  87%  80%  38°F  37°F  29.75"
3Thu 03:55 AM  41.5°F  44°F  8 mph SW  1 mph  17 mph  ----  86%  80%  37°F  37°F  29.75"
Thu 03:00 AM  42.4°F  44°F  4 mph SE  1 mph  15 mph  0.02"  89%  79%  39°F  38°F  29.75"
Thu 02:00 AM  42.3°F  45°F  4 mph SE  1 mph  8 mph  0.07"  91%  78%  40°F  38°F  29.77"
Thu 01:00 AM  42.3°F  46°F  calm  1 mph  6 mph  0.02"  90%  77%  39°F  39°F  29.80"
2Thu 12:00 AM  43.0°F  47°F  calm  1 mph  8 mph  0.06"  89%  76%  40°F  39°F  29.83"
Wed 11:00 PM  42.8°F  48°F  2 mph E  1 mph  9 mph  0.01"  89%  74%  40°F  39°F  29.84"
Wed 10:00 PM  43.5°F  49°F  5 mph S  1 mph  10 mph  0.01"  87%  71%  40°F  40°F  29.86"
Wed 09:00 PM  44.8°F  51°F  4 mph S  1 mph  10 mph  0.00"  86%  68%  41°F  40°F  29.87"
Wed 08:00 PM  45.1°F  52°F  4 mph S  1 mph  8 mph  0.00"  84%  65%  40°F  41°F  29.88"
Wed 07:00 PM  45.5°F  54°F  3 mph S  2 mph  8 mph  0.00"  82%  62%  40°F  41°F  29.90"
Wed 06:00 PM  46.2°F  56°F  2 mph SW  2 mph  10 mph  0.00"  79%  57%  40°F  40°F  29.91"
Wed 05:00 PM  47.5°F  59°F  5 mph S  3 mph  15 mph  0.00"  73%  49%  39°F  40°F  29.92"
Wed 04:00 PM  48.0°F  61°F  9 mph S  4 mph  20 mph  0.00"  68%  44%  38°F  38°F  29.93"
Wed 03:00 PM  48.2°F  62°F  6 mph S  4 mph  14 mph  0.00"  72%  43%  39°F  38°F  29.96"
Wed 02:00 PM  47.5°F  62°F  7 mph SW  3 mph  17 mph  0.00"  72%  43%  39°F  38°F  30.00"
Wed 01:00 PM  47.8°F  61°F  4 mph W  3 mph  11 mph  0.00"  66%  45%  37°F  38°F  30.03"
Wed 12:00 PM  47.8°F  59°F  7 mph S  3 mph  13 mph  0.00"  61%  47%  34°F  39°F  30.07"
Wed 11:00 AM  48.7°F  57°F  4 mph SW  2 mph  16 mph  0.00"  59%  52%  34°F  39°F  30.10"
Wed 10:00 AM  46.8°F  54°F  5 mph SW  2 mph  6 mph  0.00"  68%  59%  36°F  40°F  30.12"
Wed 09:00 AM  41.4°F  50°F  1 mph NW  1 mph  3 mph  0.00"  78%  67%  35°F  39°F  30.14"
Wed 08:00 AM  38.1°F  46°F  2 mph NW  1 mph  3 mph  0.00"  79%  76%  32°F  38°F  30.16"
Wed 07:00 AM  32.9°F  42°F  calm  calm  none  0.00"  86%  82%  29°F  37°F  30.16"
Wed 06:00 AM  32.7°F  42°F  calm  calm  none  0.00"  85%  82%  28°F  37°F  30.16"
Wed 05:00 AM  32.7°F  43°F  calm  1 mph  none  0.00"  85%  81%  28°F  37°F  30.17"
Wed 04:00 AM  33.3°F  44°F  calm  calm  none  0.00"  83%  80%  28°F  38°F  30.17"
Wed 03:00 AM  34.5°F  44°F  calm  1 mph  none  0.00"  82%  79%  29°F  38°F  30.17"
Wed 02:00 AM  35.1°F  45°F  calm  1 mph  none  0.00"  82%  78%  30°F  38°F  30.21"
Wed 01:00 AM  36.0°F  46°F  calm  1 mph  6 mph  0.00"  79%  77%  30°F  39°F  30.23"
Wed 12:00 AM  37.9°F  47°F  3 mph SE  1 mph  7 mph  0.00"  75%  76%  30°F  39°F  30.23"
Tue 11:00 PM  37.9°F  48°F  calm  1 mph  3 mph  0.00"  75%  74%  30°F  40°F  30.25"
Tue 10:00 PM  40.5°F  49°F  2 mph SE  1 mph  5 mph  0.00"  66%  71%  30°F  40°F  30.25"
Tue 09:00 PM  41.7°F  51°F  2 mph SE  1 mph  3 mph  0.00"  62%  68%  29°F  40°F  30.25"
Tue 08:00 PM  45.0°F  52°F  calm  1 mph  7 mph  0.00"  62%  66%  32°F  41°F  30.24"
Tue 07:00 PM  47.5°F  54°F  2 mph SE  2 mph  3 mph  0.00"  53%  62%  30°F  41°F  30.21"
Tue 06:00 PM  50.5°F  56°F  calm  2 mph  6 mph  0.00"  32%  57%  20°F  41°F  30.19"
Tue 05:00 PM  52.9°F  59°F  3 mph W  3 mph  7 mph  0.00"  27%  50%  18°F  40°F  30.19"
Tue 04:00 PM  54.0°F  61°F  4 mph SW  3 mph  9 mph  0.00"  25%  45%  17°F  39°F  30.19"

  1. Current weather data. No green row appears if the current weather data is also the high or low for the current day.
  2. High temperature for the current day.
  3. Low temperature for the current day.

The San Jacinto, California weather pages are a service of WeatherCurrents. San Jacinto is located in the heart of the San Jacinto Valley, near Hemet, the Soboba Casino, and at the foot of the San Jacinto Mountains.
Copyright ©Thu Feb 21 03:59:45 PST 2019  WeatherCurrents. All rights reserved. - Submit questions and comments - Privacy Policy

This page automatically refreshes every 10 minutes.